Station: Rockhampton

  Atmospheric Gas Attenuation - ITU Rec 676-11   --------------- db/100km ---------------
Date Time Temp RH % AH g/m3 Dew Point Wind Direction Speed kph Gust kph Barometer mB Rainfall Since 9am 24GHz 47GHz 76GHz 122GHz 134GHz 241GHz
27 01:30 24.6 82 18.46 21.3 9 11 1008.7 0 39.9 39.0 74.8 197.8 217.0 753.5
27 01:20 24.6 83 18.68 21.5 9 9 1008.6 0 40.3 39.4 75.8 200.5 220.3 765.2
27 01:10 24.6 83 18.68 21.5 9 11 1008.7 0 40.3 39.4 75.8 200.5 220.3 765.3
27 01:00 24.6 83 18.68 21.5 11 13 1008.8 0 40.3 39.4 75.8 200.5 220.4 765.3
27 00:50 24.8 82 18.66 21.5 11 13 1009 0 40.3 39.3 75.5 199.8 219.5 762.3
27 00:40 25 81 18.65 21.5 9 11 1009.1 0 40.2 39.2 75.3 199.2 218.8 759.8
27 00:30 25.1 81 18.75 21.6 9 13 1009.3 0 40.4 39.4 75.7 200.2 220.0 764.2
27 00:20 25 80 18.42 21.3 11 13 1009.5 0 39.7 38.8 74.2 196.4 215.3 747.9
27 00:10 25.6 78 18.57 21.5 9 11 1009.6 0 40.0 38.8 74.3 196.7 215.9 749.9
27 00:00 25.7 77 18.43 21.4 6 9 1009.7 0 39.7 38.5 73.6 194.7 213.5 741.6
26 23:50 25.6 77 18.33 21.3 7 9 1009.8 0 39.5 38.4 73.3 193.8 212.3 737.4
26 23:40 25.7 77 18.43 21.4 7 9 1009.7 0 39.7 38.5 73.6 194.7 213.5 741.6
26 23:30 25.7 77 18.43 21.4 11 13 1009.8 0 39.7 38.5 73.6 194.7 213.5 741.7
26 23:20 25.8 76 18.3 21.2 9 11 1010 0 39.4 38.2 72.9 192.9 211.3 734.0
26 23:10 25.9 75 18.16 21.1 9 9 1010.1 0 39.1 37.9 72.2 191.0 209.0 725.8
26 23:00 25.9 75 18.16 21.1 9 11 1010.1 0 39.1 37.9 72.2 191.0 209.0 725.8
26 22:50 25.9 75 18.16 21.1 9 9 1010.2 0 39.1 37.9 72.2 191.0 209.0 725.9
26 22:40 25.8 75 18.06 21 7 11 1010.2 0 38.9 37.8 71.8 190.0 207.8 721.6
26 22:30 25.9 76 18.4 21.3 9 11 1010.2 0 39.6 38.4 73.3 193.9 212.6 738.4
26 22:20 25.8 76 18.3 21.2 9 11 1010.2 0 39.4 38.2 72.9 193.0 211.3 734.1
26 22:10 25.8 76 18.3 21.2 9 11 1010.3 0 39.4 38.2 73.0 193.0 211.4 734.2
26 22:00 26 75 18.26 21.2 9 13 1010.3 0 39.3 38.1 72.6 192.0 210.2 730.2
26 21:50 26 75 18.26 21.2 9 11 1010.3 0 39.3 38.1 72.6 192.0 210.2 730.2
26 21:40 25.8 75 18.06 21 9 11 1010.2 0 38.9 37.8 71.8 190.0 207.8 721.6
26 21:30 26.1 75 18.36 21.3 7 11 1010.1 0 39.5 38.2 72.9 192.9 211.4 734.3
26 21:20 26.1 74 18.12 21.1 7 9 1010.1 0 39.0 37.8 71.8 190.0 207.8 721.8
26 21:10 26.3 73 18.07 21.1 7 7 1010 0 38.9 37.6 71.4 188.9 206.5 717.3
26 21:00 26.2 73 17.97 21 7 9 1010.1 0 38.7 37.4 71.1 187.9 205.3 713.2
26 20:50 26.3 73 18.07 21.1 6 7 1009.9 0 38.9 37.6 71.4 188.9 206.5 717.3
26 20:40 26.4 72 17.92 20.9 9 9 1009.8 0 38.5 37.2 70.6 186.8 204.0 708.6
26 20:30 26.3 71 17.58 20.6 6 11 1009.6 0 37.8 36.7 69.2 183.0 199.2 692.1
26 20:20 26.4 71 17.67 20.7 6 7 1009.6 0 38.0 36.8 69.5 183.8 200.3 695.8
26 20:10 26.5 68 17.02 20.3 11 15 1009.5 0 36.6 35.6 66.5 175.9 190.6 662.1
26 20:00 26.6 69 17.37 20.4 9 13 1009.5 0 37.4 36.2 68.0 179.8 195.4 678.8
26 19:50 26.6 69 17.37 20.4 11 13 1009.3 0 37.4 36.2 68.0 179.7 195.4 678.7
26 19:40 26.7 68 17.21 20.3 9 13 1009.2 0 37.0 35.8 67.2 177.6 192.8 669.7
26 19:30 26.7 67 16.96 20.1 9 13 1009 0 36.5 35.4 66.1 174.7 189.2 657.2
26 19:20 26.8 66 16.8 19.9 11 11 1009 0 36.1 35.1 65.3 172.6 186.7 648.4
26 19:10 27 65 16.73 19.9 13 15 1008.9 0 36.0 34.8 64.8 171.3 185.2 643.2
26 19:00 27.1 62 16.05 19.2 7 9 1008.9 0 34.5 33.6 61.8 163.4 175.4 609.3
26 18:50 27.3 60 15.7 18.9 9 11 1008.9 0 33.8 33.0 60.2 159.1 170.2 591.0
26 18:40 27.5 59 15.61 18.8 4 6 1008.9 0 33.6 32.7 59.7 157.6 168.5 585.2
26 18:30 27.7 58 15.52 18.7 7 11 1008.6 0 33.4 32.5 59.1 156.2 166.8 579.3
26 18:20 27.9 60 16.23 19.4 9 11 1008.4 0 34.9 33.6 61.9 163.7 176.0 611.4
26 18:10 28.1 58 15.86 19.3 11 15 1008.3 0 34.1 32.9 60.2 159.1 170.5 592.2
26 18:00 28.4 56 15.57 18.8 15 22 1008.2 0 33.4 32.3 58.8 155.3 165.9 576.3
26 17:50 28.7 56 15.83 19.1 15 20 1008.1 0 34.0 32.6 59.6 157.5 168.8 586.2
26 17:40 29 53 15.23 18.7 15 17 1007.9 0 32.7 31.5 56.9 150.4 160.1 556.1
26 17:30 28.9 54 15.43 18.7 13 20 1007.8 0 33.1 31.9 57.8 152.8 163.0 566.0
26 17:20 29.1 53 15.31 18.8 15 20 1007.7 0 32.8 31.6 57.2 151.1 160.9 559.0
26 17:10 29.2 52 15.1 18.6 13 17 1007.8 0 32.4 31.2 56.3 148.7 158.0 548.7
26 17:00 29.3 51 14.89 18.1 17 26 1007.8 0 31.9 30.9 55.4 146.2 155.1 538.5
26 16:50 29.4 50 14.68 17.9 15 19 1007.7 0 31.5 30.5 54.5 143.8 152.1 528.3
26 16:40 29.5 53 15.65 18.9 15 19 1007.7 0 33.5 32.0 58.3 154.0 164.6 571.8
26 16:30 29.8 50 15 18.3 17 24 1007.6 0 32.1 30.9 55.4 146.5 155.5 539.9
26 16:20 30.2 48 14.72 18 15 19 1007.6 0 31.5 30.3 54.1 142.8 151.1 524.7
26 16:10 30.4 46 14.26 17.5 17 20 1007.5 0 30.5 29.5 52.1 137.7 144.9 503.0
26 16:00 30.3 44 13.56 17 17 24 1007.4 0 29.1 28.4 49.5 130.8 136.3 473.2
26 15:50 30.4 49 15.19 18.5 17 20 1007.4 0 32.5 30.9 55.8 147.3 156.7 544.3
26 15:40 30.8 47 14.88 18.2 17 20 1007.3 0 31.8 30.3 54.3 143.3 151.9 527.7
26 15:30 31.1 42 13.52 17 17 26 1007.3 0 29.0 28.1 48.9 129.1 134.5 466.8
26 15:20 30.7 47 14.8 18.1 19 24 1007.3 0 31.6 30.2 54.0 142.7 151.1 524.8
26 15:10 30.8 45 14.25 17.5 19 24 1007.3 0 30.5 29.3 51.8 136.9 144.0 500.0
26 15:00 32 40 13.51 16.7 17 24 1007.3 0 28.9 27.8 48.3 127.5 132.8 461.1
26 14:50 31.1 41 13.19 16.3 20 26 1007.4 0 28.3 27.6 47.7 125.8 130.5 452.8
26 14:40 31 42 13.44 16.6 19 24 1007.4 0 28.8 28.0 48.7 128.5 133.7 464.0
26 14:30 31 41 13.12 16.2 19 26 1007.4 0 28.1 27.6 47.5 125.3 129.8 450.4
26 14:20 31.1 41 13.19 16.3 22 24 1007.5 0 28.3 27.6 47.7 125.8 130.5 452.9
26 14:10 30.9 42 13.37 16.5 19 24 1007.5 0 28.7 28.0 48.5 127.9 133.0 461.6
26 14:00 31.5 39 12.82 15.9 17 24 1007.6 0 27.5 27.0 46.1 121.6 125.4 435.2
26 13:50 31.5 40 13.15 16.3 19 20 1007.7 0 28.2 27.5 47.3 124.9 129.4 449.0
26 13:40 31.7 40 13.29 16.8 15 19 1007.8 0 28.4 27.6 47.7 125.9 130.7 453.8
26 13:30 31.7 38 12.63 16 19 28 1007.9 0 27.1 26.6 45.3 119.6 122.9 426.4
26 13:20 31.7 37 12.3 15.6 20 26 1007.9 0 26.4 26.2 44.2 116.4 119.0 412.9
26 13:10 32.3 39 13.38 16.6 17 24 1008 0 28.6 27.6 47.7 125.9 130.8 454.2
26 13:00 32.8 38 13.39 16.6 20 28 1008 0 28.6 27.4 47.4 125.2 130.1 451.8
26 12:50 32.3 40 13.73 17 17 22 1008.1 0 29.3 28.1 49.0 129.3 135.0 468.9
26 12:40 32.9 41 14.52 17.9 17 22 1008.2 0 30.9 29.1 51.5 136.1 143.6 498.8
26 12:30 32.6 39 13.6 17.2 19 28 1008.2 0 29.0 27.8 48.3 127.6 133.0 461.8
26 12:20 32.8 38 13.39 17 19 24 1008.3 0 28.6 27.4 47.5 125.2 130.2 451.9
26 12:10 32.2 39 13.31 16.5 19 26 1008.5 0 28.4 27.5 47.5 125.4 130.2 452.0
26 12:00 33.7 40 14.78 18.6 19 28 1008.6 0 31.4 29.2 52.0 137.4 145.3 505.1
26 11:50 32.5 40 13.87 17.2 15 19 1008.7 0 29.6 28.3 49.4 130.4 136.5 473.9
26 11:40 32.1 42 14.26 17.6 22 26 1008.8 0 30.4 29.0 51.1 135.0 141.9 492.9
26 11:30 32.1 44 14.94 18.3 19 28 1008.9 0 31.8 30.0 53.7 141.8 150.4 522.4
26 11:20 31.4 44 14.39 17.7 17 20 1009 0 30.7 29.4 52.1 137.5 144.8 503.0
26 11:10 32.2 44 15.02 18.4 20 26 1009 0 32.0 30.1 53.9 142.5 151.2 525.2
26 11:00 31.6 44 14.54 17.9 17 28 1009.1 0 31.0 29.6 52.5 138.7 146.3 508.2
26 10:50 30.9 45 14.33 17.6 19 24 1009.1 0 30.6 29.5 52.2 137.7 145.0 503.5
26 10:40 30.5 47 14.65 17.9 17 20 1009.1 0 31.3 30.1 53.7 141.7 149.8 520.2
26 10:30 31.5 44 14.47 17.8 17 26 1009.2 0 30.9 29.5 52.3 138.1 145.6 505.9
26 10:20 30.6 45 14.1 17.3 20 22 1009.3 0 30.2 29.2 51.5 135.9 142.7 495.5
26 10:10 31 48 15.37 18.7 19 20 1009.3 0 32.8 31.1 56.1 148.3 158.0 549.0
26 10:00 30.9 48 15.28 18.6 19 28 1009.4 0 32.6 31.0 55.9 147.6 157.1 545.7
26 09:50 30.9 48 15.28 18.9 20 24 1009.5 0 32.6 31.0 55.9 147.6 157.1 545.7
26 09:40 30.4 51 15.81 19.4 17 20 1009.5 0 33.8 32.0 58.3 154.1 165.0 573.3
26 09:30 30.3 55 16.95 20.5 17 26 1009.6 0 36.1 33.9 63.1 166.7 180.4 627.1
26 09:20 29.5 58 17.12 20.4 20 22 1009.6 0 36.6 34.5 64.4 170.4 184.7 641.7
26 09:10 29.4 58 17.03 20.5 17 20 1009.5 0 36.4 34.4 64.1 169.6 183.7 638.2
26 09:00 28.9 62 17.71 20.9 19 26 1009.5 0 37.9 35.8 67.4 178.4 194.4 675.4

Last Refresh: 27-Feb-2021 02:12:34

Most of the information presented on this site is sourced from the Bureau of Meteorology.  Copyright in all material sourced from the Bureau of Meteorology resides with the Commonwealth of Australia.